Time;durP1;ratioP1;P1;durP2;ratioP2;P2;SDS_P1;SDS_P2;PMS_P1;PMS_P2;Temp;Humidity;BMP_temperature;BMP_pressure;BME280_temperature;BME280_humidity;BME280_pressure;Samples;Min_cycle;Max_cycle;Signal;HPM_P1;HPM_P2
2022/10/01 00:01:08;;;;;;;10.52;4.55;;;;;;;;;;5108450;28;20643;-72
2022/10/01 00:03:36;;;;;;;4.90;4.50;;;;;;;;;;5109285;28;20418;-72
2022/10/01 00:06:05;;;;;;;4.97;4.47;;;;;;;;;;5090226;28;20514;-71
2022/10/01 00:08:33;;;;;;;12.38;4.95;;;;;;;;;;5109820;28;20044;-72
2022/10/01 00:11:01;;;;;;;15.07;4.55;;;;;;;;;;5109640;28;20044;-72
2022/10/01 00:13:29;;;;;;;13.30;5.07;;;;;;;;;;5109182;28;20535;-72
2022/10/01 00:15:58;;;;;;;6.40;4.75;;;;;;;;;;5108496;28;20578;-72
2022/10/01 00:18:25;;;;;;;10.57;4.60;;;;;;;;;;5107826;28;20260;-72
2022/10/01 00:20:53;;;;;;;6.20;4.70;;;;;;;;;;5108496;28;20048;-72
2022/10/01 00:23:20;;;;;;;10.15;4.13;;;;;;;;;;5109955;28;20478;-72
2022/10/01 00:25:51;;;;;;;7.15;4.82;;;;;;;;;;5108197;28;20126;-71
2022/10/01 00:28:18;;;;;;;5.10;4.20;;;;;;;;;;5109376;28;20048;-73
2022/10/01 00:30:46;;;;;;;3.97;3.67;;;;;;;;;;5109268;28;20059;-72
2022/10/01 00:33:14;;;;;;;5.15;4.65;;;;;;;;;;5109869;28;20058;-72
2022/10/01 00:35:41;;;;;;;6.00;4.60;;;;;;;;;;5106816;28;20404;-72
2022/10/01 00:38:10;;;;;;;4.70;4.30;;;;;;;;;;5109149;28;20039;-72
2022/10/01 00:40:37;;;;;;;7.72;3.80;;;;;;;;;;5107277;28;20134;-72
2022/10/01 00:43:19;;;;;;;5.63;5.03;;;;;;;;;;5108600;28;20043;-72
2022/10/01 00:45:47;;;;;;;6.72;6.22;;;;;;;;;;5089212;28;20048;-72
2022/10/01 00:48:14;;;;;;;5.20;4.70;;;;;;;;;;5107595;28;20055;-72
2022/10/01 00:50:42;;;;;;;4.05;3.75;;;;;;;;;;5087130;28;20117;-72
2022/10/01 00:53:11;;;;;;;6.18;4.30;;;;;;;;;;5108577;28;20211;-72
2022/10/01 00:55:50;;;;;;;6.45;4.50;;;;;;;;;;5088892;28;20043;-72
2022/10/01 00:58:19;;;;;;;10.55;4.07;;;;;;;;;;5108037;28;20514;-72
2022/10/01 01:00:47;;;;;;;21.13;4.68;;;;;;;;;;5108515;28;20177;-72
2022/10/01 01:03:15;;;;;;;5.50;4.40;;;;;;;;;;5107805;28;20070;-72
2022/10/01 01:05:42;;;;;;;5.65;4.50;;;;;;;;;;5104652;28;20126;-72
2022/10/01 01:08:10;;;;;;;7.32;4.63;;;;;;;;;;5107559;28;20050;-72
2022/10/01 01:11:00;;;;;;;7.35;4.95;;;;;;;;;;5106516;28;20695;-72
2022/10/01 01:13:41;;;;;;;5.40;4.88;;;;;;;;;;5106446;28;20510;-72
2022/10/01 01:16:17;;;;;;;7.57;4.47;;;;;;;;;;5106383;28;20046;-72
2022/10/01 01:19:03;;;;;;;14.82;4.18;;;;;;;;;;5107826;28;20045;-72
2022/10/01 01:21:37;;;;;;;11.32;4.65;;;;;;;;;;5107009;28;20124;-72
2022/10/01 01:24:23;;;;;;;6.95;4.00;;;;;;;;;;5106954;28;20059;-72
2022/10/01 01:26:58;;;;;;;7.85;4.00;;;;;;;;;;5089530;28;20522;-72
2022/10/01 01:29:32;;;;;;;6.40;4.63;;;;;;;;;;5107723;28;20494;-72
2022/10/01 01:32:06;;;;;;;5.57;4.03;;;;;;;;;;5107067;28;20107;-72
2022/10/01 01:34:40;;;;;;;4.75;3.78;;;;;;;;;;5091011;28;20043;-71
2022/10/01 01:37:11;;;;;;;6.65;3.63;;;;;;;;;;5073387;28;20048;-72
2022/10/01 01:39:41;;;;;;;3.45;3.15;;;;;;;;;;5108938;28;20036;-72
2022/10/01 01:42:15;;;;;;;3.50;3.20;;;;;;;;;;5108014;28;20054;-72
2022/10/01 01:44:44;;;;;;;4.05;3.67;;;;;;;;;;5104376;28;20046;-72
2022/10/01 01:47:12;;;;;;;16.80;8.52;;;;;;;;;;5107175;28;20070;-72
2022/10/01 01:49:41;;;;;;;14.75;8.88;;;;;;;;;;5109031;28;20126;-72
2022/10/01 01:52:12;;;;;;;5.03;4.32;;;;;;;;;;5107098;28;20043;-72
2022/10/01 01:54:40;;;;;;;10.57;6.45;;;;;;;;;;5105884;28;20376;-72
2022/10/01 01:57:08;;;;;;;6.68;4.32;;;;;;;;;;5107824;28;20568;-72
2022/10/01 01:59:35;;;;;;;6.35;5.00;;;;;;;;;;5106913;28;20109;-72
2022/10/01 02:02:05;;;;;;;11.13;6.95;;;;;;;;;;5106476;28;20150;-72
2022/10/01 02:04:45;;;;;;;3.53;3.22;;;;;;;;;;5105331;28;20044;-72
2022/10/01 02:07:28;;;;;;;3.92;3.70;;;;;;;;;;5105334;28;20407;-72
2022/10/01 02:10:03;;;;;;;3.47;3.28;;;;;;;;;;5072993;28;20492;-73
2022/10/01 02:12:46;;;;;;;3.67;3.38;;;;;;;;;;5105435;28;20041;-72
2022/10/01 02:15:26;;;;;;;3.58;3.00;;;;;;;;;;5103563;28;20495;-72
2022/10/01 02:17:58;;;;;;;3.30;3.10;;;;;;;;;;5104822;28;20048;-71
2022/10/01 02:20:32;;;;;;;3.42;3.15;;;;;;;;;;5105242;28;20414;-72
2022/10/01 02:23:02;;;;;;;2.83;2.72;;;;;;;;;;5104661;28;20052;-72
2022/10/01 02:25:33;;;;;;;2.65;2.45;;;;;;;;;;5104973;28;20039;-72
2022/10/01 02:28:03;;;;;;;5.03;4.13;;;;;;;;;;5105956;28;20039;-72
2022/10/01 02:30:32;;;;;;;5.13;3.88;;;;;;;;;;5105441;28;20043;-72
2022/10/01 02:33:00;;;;;;;4.93;4.05;;;;;;;;;;5105743;28;20042;-72
2022/10/01 02:35:30;;;;;;;4.30;4.00;;;;;;;;;;5104222;28;20494;-72
2022/10/01 02:38:00;;;;;;;4.35;4.00;;;;;;;;;;5106203;28;20490;-72
2022/10/01 02:40:29;;;;;;;5.30;3.95;;;;;;;;;;5118164;22;20137;-71
2022/10/01 02:43:01;;;;;;;7.00;4.30;;;;;;;;;;5084591;28;20044;-71
2022/10/01 02:45:31;;;;;;;5.43;4.00;;;;;;;;;;5098863;28;20264;-71
2022/10/01 02:48:03;;;;;;;4.47;4.07;;;;;;;;;;5085036;28;20117;-71
2022/10/01 02:50:35;;;;;;;4.80;4.40;;;;;;;;;;5103177;28;20047;-71
2022/10/01 02:53:05;;;;;;;5.13;4.63;;;;;;;;;;5102623;28;20042;-71
2022/10/01 02:55:35;;;;;;;5.40;4.90;;;;;;;;;;5103713;28;20042;-71
2022/10/01 02:58:03;;;;;;;5.07;4.63;;;;;;;;;;5102103;28;20067;-71
2022/10/01 03:00:31;;;;;;;5.13;4.63;;;;;;;;;;5103648;28;20164;-71
2022/10/01 03:02:58;;;;;;;4.57;4.18;;;;;;;;;;5102423;28;20036;-71
2022/10/01 03:05:26;;;;;;;5.88;4.72;;;;;;;;;;5101645;28;20043;-71
2022/10/01 03:07:53;;;;;;;4.70;4.30;;;;;;;;;;5102492;28;20067;-71
2022/10/01 03:10:21;;;;;;;4.22;3.83;;;;;;;;;;5090632;28;20044;-71
2022/10/01 03:12:49;;;;;;;4.32;4.03;;;;;;;;;;5093750;28;20135;-71
2022/10/01 03:15:18;;;;;;;4.55;4.07;;;;;;;;;;5075653;28;20047;-71
2022/10/01 03:17:45;;;;;;;4.32;3.92;;;;;;;;;;5103168;28;20036;-71
2022/10/01 03:20:13;;;;;;;11.63;10.55;;;;;;;;;;5103423;28;20047;-71
2022/10/01 03:22:40;;;;;;;9.18;4.95;;;;;;;;;;5104179;28;20048;-71
2022/10/01 03:25:08;;;;;;;4.65;4.35;;;;;;;;;;5105099;28;20105;-71
2022/10/01 03:27:35;;;;;;;4.95;4.15;;;;;;;;;;5105169;28;20138;-71
2022/10/01 03:30:04;;;;;;;4.05;3.72;;;;;;;;;;5105519;28;20044;-71
2022/10/01 03:32:32;;;;;;;4.20;3.90;;;;;;;;;;5104046;28;20052;-71
2022/10/01 03:35:00;;;;;;;4.30;3.97;;;;;;;;;;5104704;28;20078;-71
2022/10/01 03:37:27;;;;;;;4.82;4.43;;;;;;;;;;5104706;28;20052;-71
2022/10/01 03:39:55;;;;;;;3.72;3.42;;;;;;;;;;5068031;28;1067809;-71
2022/10/01 03:42:23;;;;;;;4.57;4.28;;;;;;;;;;5106125;28;20134;-71
2022/10/01 03:44:50;;;;;;;4.50;4.20;;;;;;;;;;5105796;28;20059;-71
2022/10/01 03:47:18;;;;;;;4.97;4.47;;;;;;;;;;5104653;28;20044;-71
2022/10/01 03:49:45;;;;;;;4.72;4.40;;;;;;;;;;5106073;28;20046;-71
2022/10/01 03:52:13;;;;;;;4.40;4.10;;;;;;;;;;5104823;28;20047;-71
2022/10/01 03:54:40;;;;;;;4.63;4.30;;;;;;;;;;5084726;28;20473;-71
2022/10/01 03:57:08;;;;;;;3.83;3.53;;;;;;;;;;5085547;28;20044;-71
2022/10/01 03:59:35;;;;;;;4.47;4.07;;;;;;;;;;5085900;28;20040;-71
2022/10/01 04:02:03;;;;;;;4.05;3.65;;;;;;;;;;5085258;28;20048;-71
2022/10/01 04:04:30;;;;;;;4.22;3.85;;;;;;;;;;5083948;28;20079;-71
2022/10/01 04:06:58;;;;;;;7.38;4.05;;;;;;;;;;5083947;28;20414;-71
2022/10/01 04:09:25;;;;;;;4.97;4.57;;;;;;;;;;5088713;28;20036;-72
2022/10/01 04:11:53;;;;;;;5.40;4.90;;;;;;;;;;5088663;28;20396;-71
2022/10/01 04:14:21;;;;;;;4.60;4.20;;;;;;;;;;5087212;28;20051;-71
2022/10/01 04:16:51;;;;;;;4.60;4.25;;;;;;;;;;5088631;28;20093;-72
2022/10/01 04:19:19;;;;;;;5.72;4.25;;;;;;;;;;5089351;28;20121;-72
2022/10/01 04:21:46;;;;;;;4.35;4.05;;;;;;;;;;5087902;28;20051;-71
2022/10/01 04:24:14;;;;;;;4.50;4.10;;;;;;;;;;5088927;28;20040;-72
2022/10/01 04:26:41;;;;;;;4.60;4.20;;;;;;;;;;5088601;28;20394;-71
2022/10/01 04:29:09;;;;;;;4.78;4.38;;;;;;;;;;5088100;28;20062;-72
2022/10/01 04:31:36;;;;;;;3.80;3.50;;;;;;;;;;5087258;28;20503;-72
2022/10/01 04:34:05;;;;;;;4.65;4.28;;;;;;;;;;5088689;28;20071;-72
2022/10/01 04:36:32;;;;;;;3.90;3.60;;;;;;;;;;5087826;28;20491;-72
2022/10/01 04:38:59;;;;;;;4.20;3.90;;;;;;;;;;5088810;28;20040;-72
2022/10/01 04:41:29;;;;;;;4.32;4.03;;;;;;;;;;5087431;28;20051;-72
2022/10/01 04:43:58;;;;;;;5.13;4.72;;;;;;;;;;5088688;28;20388;-71
2022/10/01 04:46:26;;;;;;;6.05;5.50;;;;;;;;;;5086060;28;20040;-72
2022/10/01 04:48:54;;;;;;;6.25;4.95;;;;;;;;;;5088448;28;20123;-71
2022/10/01 04:51:21;;;;;;;5.57;5.03;;;;;;;;;;5088383;28;20071;-71
2022/10/01 04:53:49;;;;;;;5.38;4.95;;;;;;;;;;5088409;28;20075;-71
2022/10/01 04:56:16;;;;;;;5.20;4.80;;;;;;;;;;5087650;28;20496;-71
2022/10/01 04:58:43;;;;;;;6.03;5.18;;;;;;;;;;5088363;28;20382;-72
2022/10/01 05:01:11;;;;;;;5.85;5.05;;;;;;;;;;5088391;28;20043;-71
2022/10/01 05:03:40;;;;;;;8.45;5.40;;;;;;;;;;5088335;28;20071;-72
2022/10/01 05:06:07;;;;;;;7.63;5.13;;;;;;;;;;5086854;28;20046;-72
2022/10/01 05:08:36;;;;;;;5.40;4.90;;;;;;;;;;5087869;28;20484;-72
2022/10/01 05:11:03;;;;;;;6.35;5.63;;;;;;;;;;5070018;28;20813;-72
2022/10/01 05:13:31;;;;;;;5.18;4.32;;;;;;;;;;5086748;28;20109;-72
2022/10/01 05:15:59;;;;;;;4.78;4.47;;;;;;;;;;5087104;28;20515;-72
2022/10/01 05:18:26;;;;;;;5.18;4.78;;;;;;;;;;5087587;28;20052;-72
2022/10/01 05:20:54;;;;;;;6.80;5.35;;;;;;;;;;5084983;28;20052;-72
2022/10/01 05:23:21;;;;;;;4.22;3.92;;;;;;;;;;5087601;28;20517;-72
2022/10/01 05:25:49;;;;;;;5.82;5.32;;;;;;;;;;5097662;28;20413;-71
2022/10/01 05:28:18;;;;;;;5.38;4.78;;;;;;;;;;5107907;28;20097;-72
2022/10/01 05:30:49;;;;;;;5.95;4.97;;;;;;;;;;5108345;28;20044;-72
2022/10/01 05:33:17;;;;;;;6.07;5.45;;;;;;;;;;5108706;28;20483;-71
2022/10/01 05:35:45;;;;;;;5.75;5.10;;;;;;;;;;5107587;28;20517;-72
2022/10/01 05:38:12;;;;;;;6.88;5.47;;;;;;;;;;5107578;28;20051;-72
2022/10/01 05:40:44;;;;;;;6.57;5.45;;;;;;;;;;5107120;28;20043;-72
2022/10/01 05:43:11;;;;;;;5.72;5.13;;;;;;;;;;5105832;28;20055;-72
2022/10/01 05:45:39;;;;;;;5.97;5.47;;;;;;;;;;5104269;28;20101;-72
2022/10/01 05:48:07;;;;;;;6.82;5.90;;;;;;;;;;5106360;28;20392;-72
2022/10/01 05:50:39;;;;;;;5.95;5.45;;;;;;;;;;5106530;28;20043;-72
2022/10/01 05:53:07;;;;;;;6.15;5.65;;;;;;;;;;5104580;28;20043;-72
2022/10/01 05:55:34;;;;;;;5.85;5.35;;;;;;;;;;5106011;28;20045;-72
2022/10/01 05:58:02;;;;;;;6.85;6.07;;;;;;;;;;5107629;28;20076;-72
2022/10/01 06:00:30;;;;;;;7.90;6.07;;;;;;;;;;5107587;28;20044;-71
2022/10/01 06:02:58;;;;;;;6.88;6.18;;;;;;;;;;5106911;28;20044;-72
2022/10/01 06:05:26;;;;;;;7.68;6.78;;;;;;;;;;5106751;28;20044;-72
2022/10/01 06:07:54;;;;;;;7.47;6.47;;;;;;;;;;5107251;28;20046;-72
2022/10/01 06:10:22;;;;;;;7.55;6.85;;;;;;;;;;5107703;28;20104;-72
2022/10/01 06:12:50;;;;;;;6.88;6.28;;;;;;;;;;5107127;28;20058;-72
2022/10/01 06:15:17;;;;;;;6.38;5.78;;;;;;;;;;5095087;28;20110;-72
2022/10/01 06:17:45;;;;;;;9.48;6.22;;;;;;;;;;5091536;28;20384;-72
2022/10/01 06:20:14;;;;;;;7.28;6.35;;;;;;;;;;5095700;28;20115;-72
2022/10/01 06:22:43;;;;;;;7.45;5.68;;;;;;;;;;5097004;28;20052;-72
2022/10/01 06:25:12;;;;;;;6.47;5.47;;;;;;;;;;5086497;28;20109;-72
2022/10/01 06:27:39;;;;;;;5.55;5.05;;;;;;;;;;5086160;28;20044;-72
2022/10/01 06:30:07;;;;;;;6.35;5.65;;;;;;;;;;5086717;28;20123;-70
2022/10/01 06:32:35;;;;;;;6.45;5.78;;;;;;;;;;5096750;28;20039;-72
2022/10/01 06:35:03;;;;;;;6.63;6.03;;;;;;;;;;5104953;28;20059;-72
2022/10/01 06:37:31;;;;;;;7.88;5.82;;;;;;;;;;5106052;28;20062;-72
2022/10/01 06:39:59;;;;;;;6.22;5.72;;;;;;;;;;5105583;28;20395;-72
2022/10/01 06:42:27;;;;;;;6.60;5.22;;;;;;;;;;5104518;28;20055;-73
2022/10/01 06:44:54;;;;;;;7.60;5.82;;;;;;;;;;5105565;28;20456;-72
2022/10/01 06:47:22;;;;;;;7.05;6.35;;;;;;;;;;5105556;28;20123;-73
2022/10/01 06:49:49;;;;;;;7.07;6.32;;;;;;;;;;5105927;28;20550;-72
2022/10/01 06:55:03;;;;;;;7.28;6.18;;;;;;;;;;5091246;28;20036;-73
2022/10/01 06:57:32;;;;;;;6.55;5.75;;;;;;;;;;5095533;28;20040;-72
2022/10/01 07:00:00;;;;;;;7.82;6.50;;;;;;;;;;5084265;28;20126;-73
2022/10/01 07:02:28;;;;;;;6.95;6.35;;;;;;;;;;5095835;28;20035;-73
2022/10/01 07:04:59;;;;;;;6.53;5.93;;;;;;;;;;5103359;28;20604;-72
2022/10/01 07:07:30;;;;;;;6.55;5.82;;;;;;;;;;5105601;28;20552;-73
2022/10/01 07:09:58;;;;;;;6.75;6.15;;;;;;;;;;5107868;27;20055;-72
2022/10/01 07:12:26;;;;;;;6.22;5.60;;;;;;;;;;5100775;28;20123;-73
2022/10/01 07:14:53;;;;;;;7.68;6.55;;;;;;;;;;5085543;28;20066;-73
2022/10/01 07:17:22;;;;;;;9.15;7.43;;;;;;;;;;5096484;28;20051;-72
2022/10/01 07:19:49;;;;;;;7.63;6.70;;;;;;;;;;5097680;28;20486;-73
2022/10/01 07:22:18;;;;;;;6.65;6.05;;;;;;;;;;5098720;28;20198;-73
2022/10/01 07:24:45;;;;;;;10.45;6.80;;;;;;;;;;5084956;28;20511;-74
2022/10/01 07:27:14;;;;;;;8.98;8.07;;;;;;;;;;5103655;28;20079;-73
2022/10/01 07:29:41;;;;;;;8.27;7.57;;;;;;;;;;5105712;28;20469;-73
2022/10/01 07:32:09;;;;;;;8.93;7.38;;;;;;;;;;5106616;28;20130;-72
2022/10/01 07:34:41;;;;;;;8.65;7.70;;;;;;;;;;5106121;28;20036;-72
2022/10/01 07:37:08;;;;;;;;;;;;;;;;;;5105381;28;20064;-73
2022/10/01 07:39:36;;;;;;;9.82;7.32;;;;;;;;;;5106135;28;19928;-73
2022/10/01 07:42:05;;;;;;;9.70;7.60;;;;;;;;;;5106131;28;20590;-74
2022/10/01 07:44:32;;;;;;;9.52;7.72;;;;;;;;;;5108628;28;20470;-72
2022/10/01 07:47:00;;;;;;;33.28;23.35;;;;;;;;;;5095626;28;20051;-73
2022/10/01 07:49:27;;;;;;;14.27;12.85;;;;;;;;;;5087688;28;20123;-73
2022/10/01 07:51:55;;;;;;;8.45;7.20;;;;;;;;;;5088565;28;20040;-73
2022/10/01 07:54:23;;;;;;;7.53;6.85;;;;;;;;;;5087267;28;20072;-73
2022/10/01 07:56:54;;;;;;;8.38;7.32;;;;;;;;;;5090334;28;20053;-73
2022/10/01 07:59:22;;;;;;;7.85;7.15;;;;;;;;;;5090158;28;20044;-72
2022/10/01 08:01:50;;;;;;;7.75;7.05;;;;;;;;;;5072742;28;20039;-73
2022/10/01 08:07:06;;;;;;;8.23;7.45;;;;;;;;;;5089310;28;20097;-74
2022/10/01 08:09:34;;;;;;;7.95;7.25;;;;;;;;;;5091220;28;20552;-72
2022/10/01 08:12:02;;;;;;;8.52;6.40;;;;;;;;;;5088783;28;20064;-73
2022/10/01 08:14:29;;;;;;;7.50;6.80;;;;;;;;;;5101684;28;20118;-77
2022/10/01 08:16:57;;;;;;;9.98;7.00;;;;;;;;;;5105615;28;20503;-74
2022/10/01 08:19:24;;;;;;;9.43;8.43;;;;;;;;;;5110230;28;20105;-74
2022/10/01 08:21:52;;;;;;;7.35;6.75;;;;;;;;;;5109119;28;20040;-74
2022/10/01 08:24:19;;;;;;;7.22;6.68;;;;;;;;;;5109541;28;20078;-74
2022/10/01 08:26:55;;;;;;;6.68;6.07;;;;;;;;;;5109915;28;20071;-74
2022/10/01 08:29:22;;;;;;;7.88;7.22;;;;;;;;;;5109688;28;20574;-74
2022/10/01 08:31:50;;;;;;;7.97;7.28;;;;;;;;;;5109411;28;20473;-74
2022/10/01 08:34:17;;;;;;;8.75;7.85;;;;;;;;;;5108886;28;20039;-74
2022/10/01 08:36:45;;;;;;;11.48;8.10;;;;;;;;;;5109198;28;20044;-76
2022/10/01 08:39:13;;;;;;;9.40;7.85;;;;;;;;;;5109567;28;20081;-76
2022/10/01 08:41:54;;;;;;;8.75;7.85;;;;;;;;;;5108872;28;20051;-74
2022/10/01 08:44:28;;;;;;;8.35;7.65;;;;;;;;;;5090945;28;20406;-74
2022/10/01 08:46:57;;;;;;;8.55;7.85;;;;;;;;;;5109526;28;20108;-74
2022/10/01 08:49:27;;;;;;;9.23;8.43;;;;;;;;;;5107106;28;20043;-73
2022/10/01 08:51:57;;;;;;;9.98;9.07;;;;;;;;;;5108589;28;20032;-73
2022/10/01 08:54:29;;;;;;;8.98;8.18;;;;;;;;;;5088384;28;20044;-73
2022/10/01 08:56:59;;;;;;;8.57;7.75;;;;;;;;;;5088003;28;20445;-73
2022/10/01 08:59:40;;;;;;;10.73;8.73;;;;;;;;;;5087562;28;20619;-73
2022/10/01 09:02:14;;;;;;;10.38;8.43;;;;;;;;;;5099269;28;20043;-73
2022/10/01 09:04:41;;;;;;;11.20;8.27;;;;;;;;;;5106315;28;20051;-73
2022/10/01 09:07:29;;;;;;;10.05;8.82;;;;;;;;;;5106147;28;20556;-73
2022/10/01 09:10:09;;;;;;;10.50;8.95;;;;;;;;;;5107955;28;20063;-74
2022/10/01 09:12:39;;;;;;;9.88;7.80;;;;;;;;;;5108605;28;20138;-74
2022/10/01 09:15:06;;;;;;;9.20;8.30;;;;;;;;;;5106802;28;20474;-74
2022/10/01 09:17:46;;;;;;;8.65;7.55;;;;;;;;;;5108034;28;20077;-73
2022/10/01 09:20:35;;;;;;;9.38;8.57;;;;;;;;;;5108061;28;20047;-73
2022/10/01 09:23:23;;;;;;;10.40;9.45;;;;;;;;;;5106618;28;20062;-73
2022/10/01 09:25:50;;;;;;;9.52;8.50;;;;;;;;;;5106495;28;20051;-73
2022/10/01 09:28:22;;;;;;;8.80;8.00;;;;;;;;;;5108103;28;20471;-73
2022/10/01 09:30:50;;;;;;;;;;;;;;;;;;5107778;28;20046;-74
2022/10/01 09:33:19;;;;;;;10.88;7.95;;;;;;;;;;5107772;28;19926;-73
2022/10/01 09:36:10;;;;;;;8.60;7.68;;;;;;;;;;5099249;28;20118;-74
2022/10/01 09:38:41;;;;;;;8.77;8.00;;;;;;;;;;5104078;28;20453;-73
2022/10/01 09:41:09;;;;;;;9.65;8.75;;;;;;;;;;5078947;28;20035;-73
2022/10/01 09:43:38;;;;;;;9.25;8.35;;;;;;;;;;5105502;28;20058;-73
2022/10/01 09:46:12;;;;;;;10.80;8.32;;;;;;;;;;5106477;28;20051;-73
2022/10/01 09:48:43;;;;;;;9.48;8.68;;;;;;;;;;5106702;28;20032;-73
2022/10/01 09:51:37;;;;;;;10.25;8.73;;;;;;;;;;5106923;28;20069;-74
2022/10/01 09:54:14;;;;;;;9.85;8.50;;;;;;;;;;5095295;28;20055;-74
2022/10/01 09:56:49;;;;;;;10.38;9.30;;;;;;;;;;5100679;28;20043;-73
2022/10/01 09:59:18;;;;;;;10.57;9.68;;;;;;;;;;5086139;28;20391;-73
2022/10/01 10:01:49;;;;;;;9.68;8.80;;;;;;;;;;5097856;28;20493;-73
2022/10/01 10:04:22;;;;;;;9.18;8.27;;;;;;;;;;5093793;27;20066;-74
2022/10/01 10:07:14;;;;;;;12.83;7.80;;;;;;;;;;5102814;28;20410;-73
2022/10/01 10:09:42;;;;;;;9.45;8.27;;;;;;;;;;5103320;28;20402;-73
2022/10/01 10:12:23;;;;;;;8.35;7.60;;;;;;;;;;5105019;28;20591;-72
2022/10/01 10:14:51;;;;;;;;;;;;;;;;;;5103110;27;20305;-73
2022/10/01 10:17:20;;;;;;;9.05;7.43;;;;;;;;;;5106442;28;19920;-74
2022/10/01 10:19:50;;;;;;;8.43;7.63;;;;;;;;;;5095494;27;20690;-73
2022/10/01 10:22:23;;;;;;;9.38;8.52;;;;;;;;;;5112094;27;20039;-75
2022/10/01 10:24:52;;;;;;;9.07;8.20;;;;;;;;;;5105686;28;20477;-73
2022/10/01 10:27:29;;;;;;;8.23;7.53;;;;;;;;;;5107047;28;20128;-73
2022/10/01 10:30:03;;;;;;;8.02;6.60;;;;;;;;;;5101254;28;20043;-71
2022/10/01 10:32:30;;;;;;;8.57;7.28;;;;;;;;;;5096277;28;20067;-70
2022/10/01 10:35:03;;;;;;;7.05;6.45;;;;;;;;;;5089288;28;20078;-71
2022/10/01 10:37:34;;;;;;;7.90;7.13;;;;;;;;;;5086312;28;20622;-70
2022/10/01 10:40:01;;;;;;;9.55;6.30;;;;;;;;;;5086922;28;20098;-71
2022/10/01 10:42:29;;;;;;;8.63;7.60;;;;;;;;;;5085375;28;20047;-71
2022/10/01 10:45:02;;;;;;;7.65;6.95;;;;;;;;;;5094438;28;20520;-71
2022/10/01 10:47:32;;;;;;;8.07;7.38;;;;;;;;;;5098341;28;20052;-71
2022/10/01 10:50:01;;;;;;;8.82;6.63;;;;;;;;;;5100185;28;20036;-71
2022/10/01 10:52:36;;;;;;;11.50;6.43;;;;;;;;;;5095428;27;20189;-71
2022/10/01 10:55:21;;;;;;;7.55;6.85;;;;;;;;;;5094774;28;20123;-70
2022/10/01 10:57:49;;;;;;;6.22;5.63;;;;;;;;;;5096303;28;20143;-70
2022/10/01 11:00:23;;;;;;;5.78;4.97;;;;;;;;;;5097069;28;20048;-71
2022/10/01 11:02:55;;;;;;;5.15;4.75;;;;;;;;;;5095599;27;20538;-70
2022/10/01 11:05:26;;;;;;;3.05;2.85;;;;;;;;;;5101890;28;20068;-71
2022/10/01 11:07:55;;;;;;;3.53;2.50;;;;;;;;;;5085527;28;20040;-71
2022/10/01 11:10:22;;;;;;;2.28;2.05;;;;;;;;;;5084766;28;20055;-70
2022/10/01 11:13:08;;;;;;;1.65;1.55;;;;;;;;;;5085727;28;20042;-71
2022/10/01 11:15:58;;;;;;;2.42;1.73;;;;;;;;;;5084460;28;20085;-71
2022/10/01 11:18:46;;;;;;;2.05;1.80;;;;;;;;;;5087849;28;20465;-70
2022/10/01 11:21:23;;;;;;;2.25;1.63;;;;;;;;;;5089022;28;20416;-70
2022/10/01 11:23:51;;;;;;;1.95;1.70;;;;;;;;;;5087979;28;20044;-70
2022/10/01 11:26:25;;;;;;;1.60;1.50;;;;;;;;;;5089527;28;20063;-70
2022/10/01 11:28:53;;;;;;;1.50;1.40;;;;;;;;;;5090929;28;20052;-71
2022/10/01 11:31:23;;;;;;;2.72;1.75;;;;;;;;;;5090166;28;20047;-70
2022/10/01 11:33:57;;;;;;;1.65;1.55;;;;;;;;;;5089361;28;20567;-70
2022/10/01 11:36:32;;;;;;;2.30;1.50;;;;;;;;;;5089850;28;20074;-71
2022/10/01 11:39:05;;;;;;;1.30;1.30;;;;;;;;;;5090651;28;20483;-71
2022/10/01 11:41:32;;;;;;;1.00;1.00;;;;;;;;;;5089079;28;20507;-72
2022/10/01 11:44:03;;;;;;;2.45;1.20;;;;;;;;;;5088337;28;20059;-71
2022/10/01 11:46:49;;;;;;;1.40;1.30;;;;;;;;;;5088530;28;20127;-71
2022/10/01 11:49:35;;;;;;;1.50;1.40;;;;;;;;;;5090091;28;20093;-72
2022/10/01 11:52:22;;;;;;;1.25;1.20;;;;;;;;;;5089503;28;20043;-71
2022/10/01 11:54:56;;;;;;;1.40;1.30;;;;;;;;;;5088463;28;20560;-71
2022/10/01 12:00:12;;;;;;;1.52;1.50;;;;;;;;;;5089569;28;20419;-71
2022/10/01 12:02:46;;;;;;;1.58;1.48;;;;;;;;;;5094432;28;20409;-71
2022/10/01 12:05:19;;;;;;;2.28;1.70;;;;;;;;;;5108269;28;20043;-70
2022/10/01 12:07:49;;;;;;;2.13;1.55;;;;;;;;;;5109386;28;20050;-70
2022/10/01 12:10:16;;;;;;;5.47;1.65;;;;;;;;;;5109597;28;20080;-71
2022/10/01 12:12:47;;;;;;;3.70;1.40;;;;;;;;;;5109793;28;20136;-70
2022/10/01 12:15:25;;;;;;;2.45;1.58;;;;;;;;;;5109416;28;20159;-70
2022/10/01 12:17:55;;;;;;;8.35;1.52;;;;;;;;;;5107999;28;20278;-71
2022/10/01 12:20:35;;;;;;;1.17;1.17;;;;;;;;;;5121964;27;20112;-71
2022/10/01 12:23:04;;;;;;;2.67;1.92;;;;;;;;;;5129372;27;20150;-71
2022/10/01 12:25:52;;;;;;;1.95;1.85;;;;;;;;;;5128559;27;20043;-70
2022/10/01 12:28:25;;;;;;;4.40;1.50;;;;;;;;;;5129596;27;20173;-70
2022/10/01 12:30:56;;;;;;;5.93;1.63;;;;;;;;;;5129672;27;20402;-71
2022/10/01 12:33:34;;;;;;;2.03;1.45;;;;;;;;;;5129750;27;20039;-70
2022/10/01 12:36:19;;;;;;;1.92;1.35;;;;;;;;;;5129649;27;20043;-71
2022/10/01 12:39:07;;;;;;;1.20;1.20;;;;;;;;;;5129031;27;20463;-70
2022/10/01 12:41:40;;;;;;;2.53;1.60;;;;;;;;;;5096963;27;20071;-70
2022/10/01 12:44:17;;;;;;;1.73;1.50;;;;;;;;;;5087086;28;20055;-70
2022/10/01 12:47:11;;;;;;;2.30;1.73;;;;;;;;;;5086841;28;20055;-71
2022/10/01 12:49:38;;;;;;;4.18;3.38;;;;;;;;;;5080247;28;20145;-70
2022/10/01 12:52:15;;;;;;;3.05;2.03;;;;;;;;;;5088780;28;20135;-70
2022/10/01 12:54:46;;;;;;;4.60;2.08;;;;;;;;;;5088253;28;20071;-71
2022/10/01 12:57:16;;;;;;;4.13;1.70;;;;;;;;;;5087036;28;20554;-70
2022/10/01 13:00:04;;;;;;;1.95;1.75;;;;;;;;;;5094828;28;20040;-71
2022/10/01 13:02:43;;;;;;;3.22;2.90;;;;;;;;;;5098381;28;20043;-70
2022/10/01 13:05:18;;;;;;;2.05;1.95;;;;;;;;;;5053452;28;20427;-71
2022/10/01 13:08:05;;;;;;;2.58;2.38;;;;;;;;;;5079837;28;20422;-70
2022/10/01 13:10:32;;;;;;;1.90;1.80;;;;;;;;;;5092945;28;20487;-71
2022/10/01 13:13:06;;;;;;;3.42;2.10;;;;;;;;;;5094527;28;20043;-70
2022/10/01 13:15:36;;;;;;;3.20;2.00;;;;;;;;;;5099156;28;20040;-70
2022/10/01 13:18:04;;;;;;;2.53;2.33;;;;;;;;;;5085805;28;20039;-71
2022/10/01 13:20:39;;;;;;;2.88;2.67;;;;;;;;;;5081922;28;20053;-69
2022/10/01 13:23:22;;;;;;;3.45;2.42;;;;;;;;;;5099762;28;20035;-71
2022/10/01 13:26:00;;;;;;;3.28;2.40;;;;;;;;;;5104476;28;20258;-70
2022/10/01 13:28:50;;;;;;;5.38;2.78;;;;;;;;;;5105466;28;20047;-71
2022/10/01 13:31:20;;;;;;;4.45;3.10;;;;;;;;;;5104881;28;20032;-70
2022/10/01 13:33:55;;;;;;;3.10;2.90;;;;;;;;;;5105233;28;20051;-71
2022/10/01 13:36:30;;;;;;;4.18;1.85;;;;;;;;;;5101283;28;20441;-71
2022/10/01 13:38:57;;;;;;;10.50;3.00;;;;;;;;;;5098453;28;20074;-70
2022/10/01 13:41:26;;;;;;;5.38;3.15;;;;;;;;;;5102725;28;20150;-70
2022/10/01 13:43:57;;;;;;;5.63;3.35;;;;;;;;;;5103517;28;20043;-69
2022/10/01 13:46:26;;;;;;;5.38;3.45;;;;;;;;;;5099253;28;20337;-71
2022/10/01 13:48:54;;;;;;;9.75;3.22;;;;;;;;;;5102118;27;20044;-71
2022/10/01 13:51:21;;;;;;;4.55;3.28;;;;;;;;;;5098440;28;20903;-71
2022/10/01 13:53:55;;;;;;;2.53;2.33;;;;;;;;;;5082627;28;20198;-71
2022/10/01 13:56:30;;;;;;;3.92;2.97;;;;;;;;;;5093660;28;20050;-70
2022/10/01 13:58:58;;;;;;;2.78;2.50;;;;;;;;;;5102287;28;20050;-70
2022/10/01 14:01:39;;;;;;;3.67;3.00;;;;;;;;;;5099940;28;20044;-71
2022/10/01 14:04:21;;;;;;;1.60;1.50;;;;;;;;;;5102537;28;20122;-71
2022/10/01 14:06:52;;;;;;;7.95;2.58;;;;;;;;;;5075397;28;20538;-71
2022/10/01 14:09:25;;;;;;;5.47;2.65;;;;;;;;;;5088986;27;20040;-70
2022/10/01 14:17:41;;;;;;;3.47;3.28;;;;;;;;;;5100718;28;20050;-71
2022/10/01 14:20:08;;;;;;;2.92;2.72;;;;;;;;;;5089110;28;20126;-70
2022/10/01 14:22:54;;;;;;;3.83;2.75;;;;;;;;;;5104043;28;20387;-70
2022/10/01 14:25:48;;;;;;;1.42;1.33;;;;;;;;;;5102082;28;20043;-70
2022/10/01 14:28:20;;;;;;;1.95;1.83;;;;;;;;;;5102700;28;20058;-70
2022/10/01 14:30:53;;;;;;;3.08;1.83;;;;;;;;;;5103233;28;20051;-69
2022/10/01 14:33:27;;;;;;;2.63;2.05;;;;;;;;;;5100534;28;20043;-69
2022/10/01 14:36:13;;;;;;;3.95;2.15;;;;;;;;;;5101845;28;20046;-70
2022/10/01 14:38:40;;;;;;;3.08;2.00;;;;;;;;;;5103121;28;20457;-70
2022/10/01 14:41:16;;;;;;;3.00;1.92;;;;;;;;;;5105072;28;20050;-68
2022/10/01 14:43:44;;;;;;;1.95;1.67;;;;;;;;;;5103386;28;20412;-70
2022/10/01 14:46:16;;;;;;;3.40;1.77;;;;;;;;;;5103633;28;20291;-70
2022/10/01 14:48:44;;;;;;;4.45;1.98;;;;;;;;;;5095807;28;20070;-69
2022/10/01 14:51:25;;;;;;;3.88;2.00;;;;;;;;;;5104045;28;20415;-69
2022/10/01 14:53:54;;;;;;;2.70;2.50;;;;;;;;;;5105457;28;20047;-70
2022/10/01 14:56:22;;;;;;;5.60;5.00;;;;;;;;;;5093738;28;20047;-68
2022/10/01 14:58:55;;;;;;;5.63;5.13;;;;;;;;;;5097067;28;20040;-70
2022/10/01 15:01:23;;;;;;;5.45;4.93;;;;;;;;;;5095114;28;20570;-69
2022/10/01 15:03:51;;;;;;;4.03;2.80;;;;;;;;;;5087407;28;20036;-71
2022/10/01 15:06:20;;;;;;;1.48;1.38;;;;;;;;;;5093561;28;20127;-70
2022/10/01 15:08:49;;;;;;;1.65;1.55;;;;;;;;;;5093217;28;20411;-71
2022/10/01 15:11:19;;;;;;;2.63;2.10;;;;;;;;;;5096613;28;20051;-70
2022/10/01 15:13:47;;;;;;;1.92;1.83;;;;;;;;;;5095057;28;20063;-70
2022/10/01 15:16:18;;;;;;;3.65;3.38;;;;;;;;;;5097334;28;20043;-70
2022/10/01 15:18:52;;;;;;;6.35;4.03;;;;;;;;;;5098957;28;20039;-70
2022/10/01 15:21:22;;;;;;;3.40;3.10;;;;;;;;;;5093534;28;20039;-70